createdAt,value
2023-05-04T00:02:12.790Z,60.15
2023-05-04T00:07:14.281Z,60.49
2023-05-04T00:12:16.044Z,60.03
2023-05-04T00:17:17.479Z,59.83
2023-05-04T00:22:18.847Z,59.44
2023-05-04T00:27:20.320Z,60.86
2023-05-04T00:32:21.810Z,60.93
2023-05-04T00:37:23.358Z,61.24
2023-05-04T00:42:25.271Z,60.22
2023-05-04T00:47:26.921Z,60.50
2023-05-04T00:52:29.381Z,61.35
2023-05-04T00:57:30.917Z,61.12
2023-05-04T01:02:32.364Z,61.04
2023-05-04T01:07:42.982Z,60.82
2023-05-04T01:12:52.918Z,61.62
2023-05-04T01:17:54.438Z,61.63
2023-05-04T01:22:56.319Z,61.63
2023-05-04T01:28:08.977Z,57.95
2023-05-04T01:33:11.105Z,59.54
2023-05-04T01:38:12.658Z,59.15
2023-05-04T01:43:14.476Z,60.29
2023-05-04T01:48:15.924Z,61.41
2023-05-04T01:53:17.355Z,62.67
2023-05-04T01:58:19.528Z,60.92
2023-05-04T02:03:21.132Z,61.94
2023-05-04T02:08:22.701Z,62.19
2023-05-04T02:13:24.261Z,63.08
2023-05-04T02:18:25.643Z,62.20
2023-05-04T02:23:27.113Z,62.03
2023-05-04T02:28:28.582Z,60.40
2023-05-04T02:33:29.975Z,60.89
2023-05-04T02:38:31.501Z,61.73
2023-05-04T02:43:32.953Z,59.53
2023-05-04T02:48:34.510Z,64.70
2023-05-04T02:53:35.975Z,62.82
2023-05-04T02:58:37.433Z,63.23
2023-05-04T03:03:38.867Z,63.53
2023-05-04T03:08:40.306Z,63.35
2023-05-04T03:13:41.847Z,62.90
2023-05-04T03:24:02.575Z,63.66
2023-05-04T03:29:04.525Z,62.27
2023-05-04T03:34:06.093Z,61.57
2023-05-04T03:39:07.878Z,62.03
2023-05-04T03:44:10.753Z,62.29
2023-05-04T03:49:12.337Z,60.41
2023-05-04T03:54:13.921Z,62.73
2023-05-04T03:59:15.970Z,61.02
2023-05-04T04:04:17.853Z,61.83
2023-05-04T04:09:19.563Z,61.60
2023-05-04T04:14:21.110Z,61.65
2023-05-04T04:19:22.550Z,60.63
2023-05-04T04:24:24.019Z,62.71
2023-05-04T04:29:25.505Z,62.01
2023-05-04T04:34:27.131Z,60.88
2023-05-04T04:39:28.626Z,62.32
2023-05-04T04:44:30.092Z,63.35
2023-05-04T04:49:31.530Z,63.83
2023-05-04T04:54:33.019Z,65.00
2023-05-04T04:59:34.460Z,66.57
2023-05-04T05:04:39.524Z,68.90
2023-05-04T05:09:40.993Z,69.72
2023-05-04T05:14:43.012Z,70.67
2023-05-04T05:19:44.475Z,68.36
2023-05-04T05:24:45.921Z,71.28
2023-05-04T05:29:47.442Z,71.12
2023-05-04T05:34:49.267Z,69.48
2023-05-04T05:39:50.625Z,69.40
2023-05-04T05:44:52.129Z,70.33
2023-05-04T05:49:54.342Z,69.18
2023-05-04T05:54:55.799Z,68.27
2023-05-04T05:59:57.934Z,70.75
2023-05-04T06:04:59.728Z,66.97
2023-05-04T06:10:01.544Z,66.57
2023-05-04T06:15:02.943Z,68.05
2023-05-04T06:20:05.025Z,66.30
2023-05-04T06:25:08.307Z,66.62
2023-05-04T06:30:10.454Z,66.81
2023-05-04T06:35:12.104Z,67.25
2023-05-04T06:40:14.248Z,68.36
2023-05-04T06:45:15.791Z,66.89
2023-05-04T06:50:17.306Z,62.68
2023-05-04T06:55:18.948Z,64.13
2023-05-04T07:00:20.409Z,66.08
2023-05-04T07:05:22.584Z,64.51
2023-05-04T07:10:24.170Z,63.62
2023-05-04T07:15:25.586Z,63.87
2023-05-04T07:20:27.559Z,63.87
2023-05-04T07:25:29.045Z,64.28
2023-05-04T07:30:30.424Z,63.67
2023-05-04T07:35:31.858Z,63.28
2023-05-04T07:40:33.205Z,62.44
2023-05-04T07:45:34.648Z,61.34
2023-05-04T07:50:36.562Z,61.39
2023-05-04T07:55:38.091Z,60.23
2023-05-04T08:00:39.538Z,59.68
2023-05-04T08:05:41.172Z,64.47
2023-05-04T08:10:42.623Z,61.02
2023-05-04T08:15:43.981Z,62.71
2023-05-04T08:20:45.417Z,62.75
2023-05-04T08:25:47.064Z,56.89
2023-05-04T08:30:48.522Z,55.27
2023-05-04T08:35:49.952Z,59.49
2023-05-04T08:40:52.307Z,52.82
2023-05-04T08:45:53.839Z,63.57
2023-05-04T08:50:55.679Z,64.38
2023-05-04T08:55:59.148Z,56.64
2023-05-04T09:01:01.287Z,51.75
2023-05-04T09:06:03.443Z,57.25
2023-05-04T09:11:05.169Z,52.45
2023-05-04T09:16:07.622Z,51.57
2023-05-04T09:21:09.418Z,50.43
2023-05-04T09:26:10.872Z,59.72
2023-05-04T09:31:12.371Z,51.16
2023-05-04T09:36:15.625Z,57.96
2023-05-04T09:41:17.112Z,57.13
2023-05-04T09:46:19.571Z,50.71
2023-05-04T09:51:23.566Z,51.96
2023-05-04T09:56:42.609Z,54.55
2023-05-04T10:01:45.078Z,48.46
2023-05-04T10:06:46.792Z,43.94
2023-05-04T10:11:49.100Z,46.23
2023-05-04T10:17:02.832Z,57.37
2023-05-04T10:22:38.549Z,51.13
2023-05-04T10:28:01.413Z,58.80
2023-05-04T10:33:04.470Z,53.16
2023-05-04T10:38:06.360Z,54.96
2023-05-04T10:43:08.519Z,53.09
2023-05-04T10:48:10.162Z,57.96
2023-05-04T10:53:16.292Z,57.19
2023-05-04T10:58:28.392Z,39.77
2023-05-04T11:03:41.076Z,37.81
2023-05-04T11:08:43.180Z,43.06
2023-05-04T11:13:48.537Z,48.54
2023-05-04T11:18:50.008Z,51.20
2023-05-04T11:23:58.857Z,38.72
2023-05-04T11:29:00.310Z,44.22
2023-05-04T11:34:01.790Z,47.71
2023-05-04T11:39:05.952Z,47.36
2023-05-04T11:44:08.106Z,39.69
2023-05-04T11:49:09.578Z,45.09
2023-05-04T11:54:19.654Z,51.71
2023-05-04T11:59:21.090Z,46.71
2023-05-04T12:04:22.669Z,51.86
2023-05-04T12:09:26.809Z,41.53
2023-05-04T12:14:28.365Z,43.55
2023-05-04T12:19:31.244Z,42.84
2023-05-04T12:24:32.870Z,37.17
2023-05-04T12:29:34.322Z,49.52
2023-05-04T12:34:48.104Z,48.07
2023-05-04T12:39:49.588Z,43.22
2023-05-04T12:44:51.123Z,43.95
2023-05-04T12:49:55.972Z,44.50
2023-05-04T12:54:57.418Z,40.20
2023-05-04T12:59:59.341Z,43.46
2023-05-04T13:05:00.853Z,29.35
2023-05-04T13:10:02.306Z,43.76
2023-05-04T13:15:04.096Z,31.38
2023-05-04T13:20:07.105Z,40.03
2023-05-04T13:25:09.298Z,40.69
2023-05-04T13:30:11.931Z,46.67
2023-05-04T13:35:13.552Z,32.23
2023-05-04T13:40:15.006Z,38.18
2023-05-04T13:45:16.605Z,37.47
2023-05-04T13:50:18.827Z,44.10
2023-05-04T13:55:20.340Z,42.60
2023-05-04T14:00:21.996Z,38.46
2023-05-04T14:05:23.496Z,33.51
2023-05-04T14:10:25.004Z,29.91
2023-05-04T14:15:27.507Z,43.23
2023-05-04T14:20:30.177Z,42.33
2023-05-04T14:25:32.086Z,43.27
2023-05-04T14:30:33.926Z,42.24
2023-05-04T14:35:37.415Z,43.27
2023-05-04T14:46:17.242Z,42.88
2023-05-04T14:51:55.497Z,29.34
2023-05-04T14:57:00.995Z,37.54
2023-05-04T15:02:05.413Z,42.63
2023-05-04T15:07:08.108Z,42.30
2023-05-04T15:12:09.682Z,41.75
2023-05-04T15:17:11.203Z,34.37
2023-05-04T15:22:16.692Z,28.53
2023-05-04T15:27:18.832Z,41.34
2023-05-04T15:32:20.276Z,28.12
2023-05-04T15:37:21.968Z,35.10
2023-05-04T15:42:23.408Z,28.95
2023-05-04T15:47:24.933Z,30.27
2023-05-04T15:52:26.757Z,37.51
2023-05-04T15:57:28.216Z,34.94
2023-05-04T16:02:29.651Z,36.47
2023-05-04T16:07:31.179Z,37.14
2023-05-04T16:12:32.636Z,35.13
2023-05-04T16:17:35.363Z,34.54
2023-05-04T16:22:36.986Z,38.95
2023-05-04T16:27:38.596Z,38.39
2023-05-04T16:32:40.060Z,38.42
2023-05-04T16:37:41.522Z,38.37
2023-05-04T16:42:43.687Z,39.69
2023-05-04T16:47:45.694Z,39.77
2023-05-04T16:52:47.191Z,40.88
2023-05-04T16:57:48.619Z,40.02
2023-05-04T17:02:51.758Z,41.46
2023-05-04T17:07:53.949Z,40.73
2023-05-04T17:12:55.532Z,42.02
2023-05-04T17:17:57.223Z,39.39
2023-05-04T17:22:58.902Z,39.33
2023-05-04T17:28:00.640Z,41.60
2023-05-04T17:33:02.154Z,41.46
2023-05-04T17:38:03.624Z,41.09
2023-05-04T17:43:05.092Z,39.40
2023-05-04T17:48:06.576Z,42.93
2023-05-04T17:53:08.098Z,42.88
2023-05-04T17:58:09.540Z,44.97
2023-05-04T18:03:11.047Z,44.90
2023-05-04T18:08:13.037Z,43.11
2023-05-04T18:13:14.633Z,43.94
2023-05-04T18:18:16.321Z,44.21
2023-05-04T18:23:17.748Z,44.22
2023-05-04T18:28:19.179Z,39.90
2023-05-04T18:33:20.619Z,43.58
2023-05-04T18:38:22.124Z,44.32
2023-05-04T18:43:23.712Z,43.69
2023-05-04T18:48:25.187Z,49.70
2023-05-04T18:53:26.776Z,50.51
2023-05-04T18:58:28.429Z,50.17
2023-05-04T19:03:30.009Z,50.23
2023-05-04T19:08:31.573Z,49.76
2023-05-04T19:13:33.166Z,51.59
2023-05-04T19:18:34.647Z,51.26
2023-05-04T19:23:36.106Z,51.38
2023-05-04T19:28:39.822Z,51.62
2023-05-04T19:33:48.494Z,51.39
2023-05-04T19:38:50.997Z,51.77
2023-05-04T19:43:52.476Z,51.86
2023-05-04T19:48:53.943Z,51.81
2023-05-04T19:53:56.178Z,52.42
2023-05-04T19:58:57.614Z,52.33
2023-05-04T20:03:59.139Z,52.59
2023-05-04T20:09:00.713Z,52.68
2023-05-04T20:14:02.165Z,53.02
2023-05-04T20:19:06.744Z,52.92
2023-05-04T20:24:08.747Z,53.67
2023-05-04T20:29:10.376Z,53.36
2023-05-04T20:34:11.997Z,53.26
2023-05-04T20:39:13.598Z,53.56
2023-05-04T20:44:16.505Z,53.62
2023-05-04T20:49:17.939Z,53.88
2023-05-04T20:54:19.594Z,54.36
2023-05-04T20:59:21.094Z,53.95
2023-05-04T21:04:22.543Z,54.57
2023-05-04T21:09:24.105Z,54.62
2023-05-04T21:14:25.758Z,54.68
2023-05-04T21:19:27.280Z,55.00
2023-05-04T21:24:28.742Z,55.14
2023-05-04T21:29:30.376Z,55.58
2023-05-04T21:34:31.834Z,55.75
2023-05-04T21:39:33.278Z,55.83
2023-05-04T21:44:34.747Z,56.19
2023-05-04T21:49:36.557Z,56.13
2023-05-04T21:54:37.993Z,56.12
2023-05-04T21:59:39.629Z,56.24
2023-05-04T22:04:44.350Z,55.99
2023-05-04T22:09:45.823Z,56.17
2023-05-04T22:14:47.271Z,55.50
2023-05-04T22:19:48.806Z,56.07
2023-05-04T22:24:50.571Z,56.43
2023-05-04T22:29:52.093Z,56.91
2023-05-04T22:34:53.572Z,57.01
2023-05-04T22:39:55.033Z,57.30
2023-05-04T22:44:56.855Z,57.94
2023-05-04T22:49:58.383Z,57.64
2023-05-04T22:54:59.860Z,57.67
2023-05-04T23:00:01.327Z,58.17
2023-05-04T23:05:03.811Z,58.01
2023-05-04T23:10:06.048Z,57.98
2023-05-04T23:15:08.584Z,58.24
2023-05-04T23:20:10.610Z,58.50
2023-05-04T23:25:12.222Z,58.14
2023-05-04T23:30:14.108Z,58.66
2023-05-04T23:35:15.615Z,58.41
2023-05-04T23:40:17.120Z,58.75
2023-05-04T23:45:18.616Z,58.17
2023-05-04T23:50:20.104Z,59.17
2023-05-04T23:55:21.755Z,58.90
